createdAt,value
2023-04-20T00:00:20.300Z,93.48
2023-04-20T00:01:20.268Z,93.33
2023-04-20T00:02:20.361Z,93.48
2023-04-20T00:03:20.436Z,93.12
2023-04-20T00:04:20.263Z,93.54
2023-04-20T00:05:20.302Z,93.02
2023-04-20T00:06:20.221Z,92.50
2023-04-20T00:07:20.214Z,92.10
2023-04-20T00:08:20.209Z,92.30
2023-04-20T00:09:20.202Z,92.96
2023-04-20T00:10:20.172Z,92.44
2023-04-20T00:11:20.162Z,93.06
2023-04-20T00:12:20.157Z,92.50
2023-04-20T00:13:20.146Z,92.71
2023-04-20T00:14:20.177Z,92.50
2023-04-20T00:15:20.158Z,92.61
2023-04-20T00:16:20.321Z,92.92
2023-04-20T00:17:20.110Z,92.25
2023-04-20T00:18:20.082Z,91.74
2023-04-20T00:19:20.086Z,91.53
2023-04-20T00:20:20.059Z,91.99
2023-04-20T00:21:20.058Z,91.47
2023-04-20T00:22:20.044Z,91.89
2023-04-20T00:23:20.029Z,92.50
2023-04-20T00:24:20.045Z,91.58
2023-04-20T00:25:20.014Z,91.93
2023-04-20T00:26:20.001Z,92.80
2023-04-20T00:27:19.991Z,92.76
2023-04-20T00:28:20.742Z,92.76
2023-04-20T00:29:19.973Z,93.06
2023-04-20T00:30:19.955Z,92.96
2023-04-20T00:31:20.049Z,92.96
2023-04-20T00:32:19.986Z,92.76
2023-04-20T00:33:19.909Z,92.96
2023-04-20T00:34:19.917Z,92.86
2023-04-20T00:35:19.911Z,93.01
2023-04-20T00:36:19.908Z,93.16
2023-04-20T00:37:19.879Z,93.58
2023-04-20T00:38:19.857Z,93.31
2023-04-20T00:39:19.864Z,93.52
2023-04-20T00:40:19.862Z,94.24
2023-04-20T00:41:19.826Z,94.03
2023-04-20T00:42:19.827Z,94.13
2023-04-20T00:43:19.803Z,94.45
2023-04-20T00:44:19.784Z,94.03
2023-04-20T00:45:19.798Z,94.71
2023-04-20T00:46:19.786Z,94.09
2023-04-20T00:47:19.826Z,94.96
2023-04-20T00:48:19.752Z,94.45
2023-04-20T00:49:19.825Z,94.34
2023-04-20T00:50:19.878Z,95.00
2023-04-20T00:51:19.716Z,94.80
2023-04-20T00:52:19.705Z,94.70
2023-04-20T00:53:19.697Z,95.42
2023-04-20T00:54:19.678Z,94.90
2023-04-20T00:55:19.685Z,95.21
2023-04-20T00:56:19.690Z,95.00
2023-04-20T00:57:19.637Z,95.37
2023-04-20T00:58:19.632Z,95.06
2023-04-20T00:59:19.655Z,94.85
2023-04-20T01:00:19.625Z,95.10
2023-04-20T01:01:19.661Z,95.10
2023-04-20T01:02:19.615Z,95.27
2023-04-20T01:03:19.782Z,95.37
2023-04-20T01:04:19.719Z,95.17
2023-04-20T01:05:19.579Z,94.80
2023-04-20T01:06:19.548Z,95.17
2023-04-20T01:07:19.534Z,95.27
2023-04-20T01:08:19.517Z,95.17
2023-04-20T01:09:19.797Z,95.02
2023-04-20T01:10:19.503Z,94.81
2023-04-20T01:11:19.493Z,95.27
2023-04-20T01:12:19.501Z,95.17
2023-04-20T01:13:19.481Z,94.96
2023-04-20T01:14:19.453Z,94.60
2023-04-20T01:15:19.465Z,94.45
2023-04-20T01:16:19.461Z,94.76
2023-04-20T01:17:19.457Z,94.85
2023-04-20T01:18:19.416Z,94.45
2023-04-20T01:19:19.528Z,94.76
2023-04-20T01:20:19.384Z,94.76
2023-04-20T01:21:19.402Z,94.76
2023-04-20T01:22:19.370Z,95.06
2023-04-20T01:23:19.419Z,94.96
2023-04-20T01:24:19.407Z,94.70
2023-04-20T01:25:19.337Z,95.52
2023-04-20T01:26:19.320Z,95.10
2023-04-20T01:27:19.312Z,95.31
2023-04-20T01:28:19.300Z,95.21
2023-04-20T01:29:19.491Z,95.00
2023-04-20T01:30:19.328Z,96.14
2023-04-20T01:31:19.284Z,96.03
2023-04-20T01:32:19.255Z,95.93
2023-04-20T01:33:19.259Z,95.93
2023-04-20T01:34:19.251Z,96.03
2023-04-20T01:35:19.416Z,96.14
2023-04-20T01:36:19.221Z,95.93
2023-04-20T01:37:19.254Z,96.03
2023-04-20T01:38:19.207Z,96.03
2023-04-20T01:39:19.421Z,96.09
2023-04-20T01:40:19.212Z,95.83
2023-04-20T01:41:19.165Z,96.03
2023-04-20T01:42:19.169Z,96.03
2023-04-20T01:43:19.134Z,96.03
2023-04-20T01:44:19.128Z,95.93
2023-04-20T01:45:19.120Z,96.03
2023-04-20T01:46:19.173Z,96.14
2023-04-20T01:47:19.752Z,96.14
2023-04-20T01:48:19.083Z,96.24
2023-04-20T01:49:19.544Z,96.14
2023-04-20T01:50:19.068Z,96.49
2023-04-20T01:51:19.078Z,96.80
2023-04-20T01:52:19.055Z,96.80
2023-04-20T01:53:19.027Z,96.70
2023-04-20T01:54:19.020Z,97.21
2023-04-20T01:55:20.129Z,97.52
2023-04-20T01:56:19.011Z,97.52
2023-04-20T01:57:18.991Z,97.52
2023-04-20T01:58:18.972Z,97.94
2023-04-20T01:59:19.246Z,97.31
2023-04-20T02:00:18.973Z,96.59
2023-04-20T02:01:19.093Z,97.11
2023-04-20T02:02:19.016Z,97.06
2023-04-20T02:03:19.149Z,96.66
2023-04-20T02:04:18.928Z,97.17
2023-04-20T02:05:18.899Z,97.27
2023-04-20T02:06:19.147Z,97.17
2023-04-20T02:07:18.910Z,96.96
2023-04-20T02:08:18.868Z,96.81
2023-04-20T02:09:19.040Z,96.86
2023-04-20T02:10:18.853Z,96.92
2023-04-20T02:11:18.826Z,96.50
2023-04-20T02:12:18.833Z,96.41
2023-04-20T02:13:18.818Z,96.36
2023-04-20T02:14:18.796Z,96.09
2023-04-20T02:15:18.780Z,96.09
2023-04-20T02:16:18.773Z,96.09
2023-04-20T02:17:18.815Z,95.99
2023-04-20T02:18:18.748Z,95.99
2023-04-20T02:19:18.866Z,95.99
2023-04-20T02:20:18.735Z,95.89
2023-04-20T02:21:18.734Z,96.20
2023-04-20T02:22:18.720Z,95.99
2023-04-20T02:23:18.721Z,96.20
2023-04-20T02:24:18.692Z,96.14
2023-04-20T02:25:18.687Z,96.45
2023-04-20T02:26:18.664Z,96.55
2023-04-20T02:27:18.670Z,96.14
2023-04-20T02:28:18.634Z,96.24
2023-04-20T02:29:18.820Z,96.41
2023-04-20T02:30:18.620Z,96.50
2023-04-20T02:31:18.657Z,96.20
2023-04-20T02:32:18.732Z,95.99
2023-04-20T02:33:18.597Z,95.89
2023-04-20T02:34:18.577Z,95.95
2023-04-20T02:35:18.586Z,95.17
2023-04-20T02:36:18.592Z,95.23
2023-04-20T02:37:18.569Z,95.33
2023-04-20T02:38:18.541Z,95.12
2023-04-20T02:39:18.841Z,95.64
2023-04-20T02:40:18.605Z,95.33
2023-04-20T02:41:18.509Z,96.15
2023-04-20T02:42:18.510Z,95.23
2023-04-20T02:43:18.489Z,95.33
2023-04-20T02:44:18.468Z,95.23
2023-04-20T02:45:18.455Z,96.15
2023-04-20T02:46:18.499Z,96.05
2023-04-20T02:47:18.458Z,96.09
2023-04-20T02:48:18.416Z,96.05
2023-04-20T02:49:18.717Z,95.95
2023-04-20T02:50:18.397Z,95.84
2023-04-20T02:51:18.388Z,95.84
2023-04-20T02:52:18.398Z,96.15
2023-04-20T02:53:18.362Z,96.15
2023-04-20T02:54:18.374Z,95.12
2023-04-20T02:55:18.365Z,94.92
2023-04-20T02:56:18.540Z,95.33
2023-04-20T02:57:18.338Z,95.12
2023-04-20T02:58:18.392Z,94.67
2023-04-20T02:59:18.479Z,95.59
2023-04-20T03:00:18.288Z,95.02
2023-04-20T03:01:18.272Z,96.11
2023-04-20T03:02:18.457Z,94.98
2023-04-20T03:03:18.390Z,95.28
2023-04-20T03:04:18.381Z,94.67
2023-04-20T03:05:18.226Z,95.08
2023-04-20T03:06:18.220Z,95.18
2023-04-20T03:07:18.222Z,95.28
2023-04-20T03:08:18.291Z,95.28
2023-04-20T03:09:18.448Z,94.36
2023-04-20T03:10:18.175Z,94.98
2023-04-20T03:11:18.188Z,94.73
2023-04-20T03:12:18.159Z,94.73
2023-04-20T03:13:18.140Z,94.73
2023-04-20T03:14:18.149Z,94.73
2023-04-20T03:15:18.118Z,94.21
2023-04-20T03:16:18.156Z,94.52
2023-04-20T03:17:18.128Z,94.42
2023-04-20T03:18:18.105Z,94.83
2023-04-20T03:19:18.341Z,94.21
2023-04-20T03:20:18.184Z,94.42
2023-04-20T03:21:18.068Z,94.11
2023-04-20T03:22:18.333Z,94.31
2023-04-20T03:23:18.044Z,94.52
2023-04-20T03:24:18.045Z,94.21
2023-04-20T03:25:18.043Z,94.31
2023-04-20T03:26:17.996Z,94.31
2023-04-20T03:27:18.006Z,94.21
2023-04-20T03:28:17.982Z,94.11
2023-04-20T03:29:18.428Z,94.36
2023-04-20T03:30:17.947Z,94.11
2023-04-20T03:31:18.095Z,94.01
2023-04-20T03:32:17.947Z,94.21
2023-04-20T03:33:17.916Z,94.62
2023-04-20T03:34:17.913Z,94.31
2023-04-20T03:35:17.902Z,94.31
2023-04-20T03:36:17.907Z,94.42
2023-04-20T03:37:17.872Z,94.62
2023-04-20T03:38:17.870Z,94.46
2023-04-20T03:39:18.191Z,94.21
2023-04-20T03:40:17.844Z,94.46
2023-04-20T03:41:17.834Z,94.31
2023-04-20T03:42:17.874Z,94.87
2023-04-20T03:43:17.828Z,94.67
2023-04-20T03:44:17.789Z,95.08
2023-04-20T03:45:17.778Z,96.21
2023-04-20T03:46:17.955Z,95.90
2023-04-20T03:47:17.920Z,95.80
2023-04-20T03:48:17.814Z,95.95
2023-04-20T03:49:18.043Z,96.11
2023-04-20T03:50:17.753Z,96.21
2023-04-20T03:51:17.793Z,96.00
2023-04-20T03:52:17.726Z,96.11
2023-04-20T03:53:17.860Z,96.11
2023-04-20T03:54:17.678Z,96.11
2023-04-20T03:55:17.685Z,96.11
2023-04-20T03:56:17.698Z,96.11
2023-04-20T03:57:17.676Z,96.11
2023-04-20T03:58:17.632Z,96.25
2023-04-20T03:59:17.984Z,96.56
2023-04-20T04:00:17.632Z,97.14
2023-04-20T04:01:17.618Z,96.88
2023-04-20T04:02:17.771Z,97.28
2023-04-20T04:03:17.847Z,97.14
2023-04-20T04:04:18.068Z,97.18
2023-04-20T04:05:17.680Z,97.39
2023-04-20T04:06:17.584Z,97.80
2023-04-20T04:07:17.540Z,97.90
2023-04-20T04:08:17.531Z,98.05
2023-04-20T04:09:17.738Z,97.85
2023-04-20T04:10:17.529Z,98.52
2023-04-20T04:11:17.525Z,98.42
2023-04-20T04:12:17.484Z,98.21
2023-04-20T04:13:17.468Z,98.32
2023-04-20T04:14:17.465Z,98.36
2023-04-20T04:15:17.471Z,98.00
2023-04-20T04:16:17.459Z,98.00
2023-04-20T04:17:17.509Z,98.32
2023-04-20T04:18:17.418Z,98.42
2023-04-20T04:19:17.563Z,97.96
2023-04-20T04:20:17.411Z,97.49
2023-04-20T04:21:17.398Z,97.90
2023-04-20T04:22:17.516Z,97.60
2023-04-20T04:23:17.359Z,97.60
2023-04-20T04:24:17.374Z,97.03
2023-04-20T04:25:17.355Z,96.72
2023-04-20T04:26:17.343Z,97.08
2023-04-20T04:27:17.321Z,97.18
2023-04-20T04:28:17.310Z,97.49
2023-04-20T04:29:17.550Z,97.03
2023-04-20T04:30:17.369Z,97.03
2023-04-20T04:31:17.341Z,96.83
2023-04-20T04:32:17.265Z,97.03
2023-04-20T04:33:17.257Z,96.52
2023-04-20T04:34:17.351Z,96.11
2023-04-20T04:35:17.245Z,96.42
2023-04-20T04:36:17.225Z,96.31
2023-04-20T04:37:17.207Z,96.11
2023-04-20T04:38:17.203Z,96.21
2023-04-20T04:39:17.548Z,96.11
2023-04-20T04:40:17.197Z,96.00
2023-04-20T04:41:17.164Z,96.11
2023-04-20T04:42:17.155Z,96.31
2023-04-20T04:43:17.138Z,96.31
2023-04-20T04:44:17.150Z,96.21
2023-04-20T04:45:17.116Z,96.31
2023-04-20T04:46:17.180Z,95.96
2023-04-20T04:47:17.151Z,95.80
2023-04-20T04:48:17.124Z,95.90
2023-04-20T04:49:17.249Z,96.06
2023-04-20T04:50:17.067Z,95.90
2023-04-20T04:51:17.068Z,95.86
2023-04-20T04:52:26.338Z,95.86
2023-04-20T04:53:24.081Z,95.90
2023-04-20T04:54:17.027Z,95.39
2023-04-20T04:55:17.007Z,95.24
2023-04-20T04:56:17.101Z,95.34
2023-04-20T04:57:17.024Z,95.14
2023-04-20T04:58:17.002Z,96.21
2023-04-20T04:59:17.288Z,96.00
2023-04-20T05:00:16.949Z,96.21
2023-04-20T05:01:16.994Z,95.08
2023-04-20T05:02:17.187Z,95.14
2023-04-20T05:03:17.108Z,95.34
2023-04-20T05:04:16.968Z,95.24
2023-04-20T05:05:16.915Z,95.24
2023-04-20T05:06:16.887Z,95.03
2023-04-20T05:07:16.874Z,95.24
2023-04-20T05:08:16.877Z,94.83
2023-04-20T05:09:17.181Z,94.48
2023-04-20T05:10:16.876Z,95.40
2023-04-20T05:11:16.826Z,94.89
2023-04-20T05:12:16.835Z,94.48
2023-04-20T05:13:16.821Z,94.27
2023-04-20T05:14:17.342Z,94.31
2023-04-20T05:15:16.780Z,94.27
2023-04-20T05:16:16.830Z,94.48
2023-04-20T05:17:16.757Z,94.37
2023-04-20T05:18:16.895Z,94.27
2023-04-20T05:19:16.978Z,94.37
2023-04-20T05:20:17.358Z,94.17
2023-04-20T05:21:16.714Z,94.17
2023-04-20T05:22:16.880Z,94.17
2023-04-20T05:23:16.726Z,94.07
2023-04-20T05:24:16.689Z,94.48
2023-04-20T05:25:16.769Z,94.23
2023-04-20T05:26:16.818Z,94.23
2023-04-20T05:27:17.334Z,94.27
2023-04-20T05:28:16.634Z,94.23
2023-04-20T05:29:16.928Z,94.23
2023-04-20T05:30:21.239Z,94.12
2023-04-20T05:31:17.629Z,93.20
2023-04-20T05:32:16.592Z,92.83
2023-04-20T05:33:16.578Z,93.24
2023-04-20T05:34:16.683Z,93.35
2023-04-20T05:35:16.606Z,93.14
2023-04-20T05:36:16.551Z,93.40
2023-04-20T05:37:16.544Z,92.79
2023-04-20T05:38:16.534Z,92.42
2023-04-20T05:39:16.913Z,92.93
2023-04-20T05:40:16.532Z,92.69
2023-04-20T05:41:16.503Z,92.69
2023-04-20T05:42:16.493Z,92.79
2023-04-20T05:43:16.471Z,92.38
2023-04-20T05:44:16.468Z,92.03
2023-04-20T05:45:16.467Z,91.51
2023-04-20T05:46:16.623Z,91.45
2023-04-20T05:47:16.428Z,91.19
2023-04-20T05:48:16.416Z,91.91
2023-04-20T05:49:16.569Z,91.44
2023-04-20T05:50:16.412Z,92.05
2023-04-20T05:51:16.447Z,92.73
2023-04-20T05:52:16.376Z,92.32
2023-04-20T05:53:17.365Z,91.70
2023-04-20T05:54:16.379Z,91.70
2023-04-20T05:55:18.354Z,91.70
2023-04-20T05:56:16.343Z,91.55
2023-04-20T05:57:16.342Z,92.01
2023-04-20T05:58:16.349Z,92.32
2023-04-20T05:59:16.520Z,91.70
2023-04-20T06:00:16.306Z,91.66
2023-04-20T06:01:16.291Z,91.14
2023-04-20T06:02:16.324Z,91.14
2023-04-20T06:03:16.383Z,90.94
2023-04-20T06:04:16.441Z,90.94
2023-04-20T06:05:16.299Z,90.69
2023-04-20T06:06:16.797Z,90.48
2023-04-20T06:07:16.244Z,90.59
2023-04-20T06:08:16.218Z,90.08
2023-04-20T06:09:16.503Z,90.59
2023-04-20T06:10:16.873Z,90.18
2023-04-20T06:11:16.166Z,90.24
2023-04-20T06:12:16.157Z,90.03
2023-04-20T06:13:16.148Z,89.72
2023-04-20T06:14:16.133Z,89.52
2023-04-20T06:15:16.191Z,89.62
2023-04-20T06:16:16.173Z,89.42
2023-04-20T06:17:16.103Z,89.52
2023-04-20T06:18:16.093Z,89.11
2023-04-20T06:19:16.280Z,89.11
2023-04-20T06:20:16.105Z,89.42
2023-04-20T06:21:16.067Z,89.72
2023-04-20T06:22:16.053Z,89.76
2023-04-20T06:23:16.057Z,89.93
2023-04-20T06:24:16.027Z,89.97
2023-04-20T06:25:16.175Z,89.52
2023-04-20T06:26:16.019Z,89.93
2023-04-20T06:27:16.000Z,89.72
2023-04-20T06:28:15.982Z,90.14
2023-04-20T06:29:17.131Z,90.14
2023-04-20T06:30:15.980Z,89.93
2023-04-20T06:31:16.035Z,90.24
2023-04-20T06:32:15.937Z,89.72
2023-04-20T06:33:15.925Z,89.42
2023-04-20T06:34:15.912Z,89.93
2023-04-20T06:35:15.914Z,89.78
2023-04-20T06:36:15.894Z,89.99
2023-04-20T06:37:15.876Z,89.69
2023-04-20T06:38:15.864Z,89.48
2023-04-20T06:39:16.249Z,89.43
2023-04-20T06:40:16.318Z,89.07
2023-04-20T06:41:15.834Z,89.03
2023-04-20T06:42:15.821Z,88.62
2023-04-20T06:43:16.389Z,88.41
2023-04-20T06:44:15.799Z,87.90
2023-04-20T06:45:15.790Z,87.79
2023-04-20T06:46:15.827Z,87.90
2023-04-20T06:47:15.761Z,87.90
2023-04-20T06:48:30.633Z,87.38
2023-04-20T06:49:17.018Z,87.04
2023-04-20T06:50:15.750Z,87.34
2023-04-20T06:51:15.732Z,87.65
2023-04-20T06:52:15.719Z,86.25
2023-04-20T06:53:15.696Z,86.73
2023-04-20T06:54:15.694Z,86.63
2023-04-20T06:55:15.718Z,86.69
2023-04-20T06:56:15.662Z,85.56
2023-04-20T06:57:15.689Z,85.66
2023-04-20T06:58:15.642Z,85.56
2023-04-20T06:59:15.848Z,85.11
2023-04-20T07:00:15.619Z,85.01
2023-04-20T07:01:15.703Z,84.01
2023-04-20T07:02:16.383Z,83.29
2023-04-20T07:03:15.876Z,82.34
2023-04-20T07:04:15.685Z,81.27
2023-04-20T07:05:15.642Z,80.21
2023-04-20T07:06:15.546Z,79.87
2023-04-20T07:07:15.627Z,79.36
2023-04-20T07:08:15.553Z,79.12
2023-04-20T07:09:15.702Z,77.75
2023-04-20T07:10:15.507Z,78.20
2023-04-20T07:11:15.522Z,78.50
2023-04-20T07:12:15.500Z,78.44
2023-04-20T07:13:15.484Z,78.95
2023-04-20T07:14:15.494Z,78.85
2023-04-20T07:15:15.462Z,79.43
2023-04-20T07:16:15.507Z,78.47
2023-04-20T07:17:15.451Z,77.92
2023-04-20T07:18:15.424Z,76.59
2023-04-20T07:19:15.538Z,75.98
2023-04-20T07:20:15.417Z,76.39
2023-04-20T07:21:15.441Z,76.39
2023-04-20T07:22:15.391Z,77.25
2023-04-20T07:23:15.366Z,77.34
2023-04-20T07:24:15.368Z,78.06
2023-04-20T07:25:15.354Z,76.90
2023-04-20T07:26:15.338Z,76.70
2023-04-20T07:27:15.338Z,76.32
2023-04-20T07:28:15.304Z,75.92
2023-04-20T07:29:15.418Z,75.85
2023-04-20T07:30:15.297Z,75.54
2023-04-20T07:31:15.276Z,75.95
2023-04-20T07:32:15.346Z,75.81
2023-04-20T07:33:15.327Z,74.99
2023-04-20T07:34:15.327Z,74.58
2023-04-20T07:35:15.228Z,74.79
2023-04-20T07:36:15.236Z,74.58
2023-04-20T07:37:15.210Z,74.21
2023-04-20T07:38:15.195Z,74.58
2023-04-20T07:39:15.213Z,74.83
2023-04-20T07:40:15.879Z,74.32
2023-04-20T07:41:15.166Z,75.07
2023-04-20T07:42:15.151Z,74.86
2023-04-20T07:43:15.170Z,75.41
2023-04-20T07:44:15.178Z,76.02
2023-04-20T07:45:15.134Z,74.96
2023-04-20T07:46:15.223Z,74.25
2023-04-20T07:47:15.105Z,74.45
2023-04-20T07:48:15.093Z,74.73
2023-04-20T07:49:15.116Z,74.35
2023-04-20T07:50:15.091Z,74.55
2023-04-20T07:51:15.058Z,75.57
2023-04-20T07:52:17.329Z,74.45
2023-04-20T07:53:15.035Z,75.61
2023-04-20T07:54:15.036Z,76.53
2023-04-20T07:55:15.126Z,76.40
2023-04-20T07:56:14.998Z,77.83
2023-04-20T07:57:15.917Z,77.93
2023-04-20T07:58:14.996Z,78.48
2023-04-20T07:59:15.354Z,78.88
2023-04-20T08:00:14.977Z,79.33
2023-04-20T08:01:14.958Z,79.91
2023-04-20T08:02:15.027Z,79.66
2023-04-20T08:03:15.237Z,79.36
2023-04-20T08:04:15.392Z,79.36
2023-04-20T08:05:15.162Z,78.20
2023-04-20T08:06:15.848Z,78.95
2023-04-20T08:07:15.401Z,78.85
2023-04-20T08:08:14.904Z,78.85
2023-04-20T08:09:14.867Z,78.64
2023-04-20T08:10:14.872Z,78.34
2023-04-20T08:11:14.833Z,79.36
2023-04-20T08:12:14.824Z,79.46
2023-04-20T08:13:14.828Z,77.34
2023-04-20T08:14:14.843Z,75.71
2023-04-20T08:15:14.817Z,73.80
2023-04-20T08:16:14.875Z,70.82
2023-04-20T08:17:14.768Z,69.98
2023-04-20T08:18:15.047Z,69.03
2023-04-20T08:20:14.730Z,67.20
2023-04-20T08:21:14.717Z,68.15
2023-04-20T08:22:14.734Z,69.87
2023-04-20T08:23:14.714Z,70.65
2023-04-20T08:24:14.691Z,69.87
2023-04-20T08:25:14.674Z,69.57
2023-04-20T08:26:14.680Z,68.79
2023-04-20T08:27:14.656Z,70.25
2023-04-20T08:28:24.250Z,70.34
2023-04-20T08:29:15.637Z,72.79
2023-04-20T08:30:14.819Z,74.93
2023-04-20T08:31:14.734Z,74.66
2023-04-20T08:32:14.612Z,75.78
2023-04-20T08:33:14.652Z,75.16
2023-04-20T08:34:14.573Z,75.07
2023-04-20T08:35:14.578Z,75.00
2023-04-20T08:36:14.552Z,75.75
2023-04-20T08:37:14.561Z,76.19
2023-04-20T08:38:18.075Z,76.60
2023-04-20T08:39:15.515Z,76.09
2023-04-20T08:40:14.701Z,76.29
2023-04-20T08:41:14.496Z,76.33
2023-04-20T08:42:14.514Z,76.60
2023-04-20T08:43:14.476Z,76.43
2023-04-20T08:44:14.552Z,76.60
2023-04-20T08:45:14.460Z,77.11
2023-04-20T08:46:14.494Z,77.56
2023-04-20T08:47:15.532Z,78.41
2023-04-20T08:48:14.423Z,79.37
2023-04-20T08:49:14.413Z,79.57
2023-04-20T08:50:14.402Z,79.94
2023-04-20T08:51:14.392Z,80.90
2023-04-20T08:52:14.930Z,82.71
2023-04-20T08:53:14.363Z,83.44
2023-04-20T08:54:14.415Z,83.37
2023-04-20T08:55:14.348Z,83.98
2023-04-20T08:56:14.345Z,83.88
2023-04-20T08:57:14.373Z,84.09
2023-04-20T08:58:14.304Z,84.80
2023-04-20T08:59:14.317Z,84.64
2023-04-20T09:00:14.291Z,85.22
2023-04-20T09:01:17.695Z,85.11
2023-04-20T09:02:15.416Z,85.72
2023-04-20T09:03:15.019Z,85.97
2023-04-20T09:04:14.454Z,86.28
2023-04-20T09:05:14.274Z,86.79
2023-04-20T09:06:14.229Z,87.30
2023-04-20T09:07:14.229Z,87.41
2023-04-20T09:08:14.199Z,87.92
2023-04-20T09:09:14.183Z,88.68
2023-04-20T09:10:14.187Z,89.60
2023-04-20T09:11:14.161Z,89.04
2023-04-20T09:12:14.163Z,88.92
2023-04-20T09:13:14.139Z,89.70
2023-04-20T09:14:14.122Z,90.22
2023-04-20T09:15:14.118Z,90.01
2023-04-20T09:16:14.150Z,90.62
2023-04-20T09:17:14.121Z,90.42
2023-04-20T09:18:14.082Z,90.11
2023-04-20T09:19:14.118Z,90.22
2023-04-20T09:20:14.060Z,90.22
2023-04-20T09:21:14.068Z,90.01
2023-04-20T09:22:14.034Z,90.87
2023-04-20T09:23:14.076Z,90.83
2023-04-20T09:24:14.055Z,89.81
2023-04-20T09:25:14.006Z,89.60
2023-04-20T09:26:14.007Z,89.70
2023-04-20T09:27:14.001Z,89.81
2023-04-20T09:28:13.994Z,89.87
2023-04-20T09:29:13.957Z,89.45
2023-04-20T09:30:13.983Z,89.87
2023-04-20T09:31:15.084Z,89.87
2023-04-20T09:32:14.037Z,89.36
2023-04-20T09:33:13.930Z,89.42
2023-04-20T09:34:13.970Z,89.58
2023-04-20T09:35:14.029Z,88.00
2023-04-20T09:36:13.888Z,87.96
2023-04-20T09:37:13.871Z,86.22
2023-04-20T09:38:13.859Z,85.77
2023-04-20T09:39:13.872Z,85.36
2023-04-20T09:40:13.924Z,85.42
2023-04-20T09:41:13.829Z,85.38
2023-04-20T09:42:13.837Z,84.98
2023-04-20T09:43:15.325Z,84.36
2023-04-20T09:44:13.805Z,84.26
2023-04-20T09:45:13.782Z,84.30
2023-04-20T09:46:13.867Z,84.20
2023-04-20T09:47:13.787Z,84.26
2023-04-20T09:48:13.744Z,83.85
2023-04-20T09:49:13.757Z,83.95
2023-04-20T09:50:24.734Z,82.59
2023-04-20T09:51:14.819Z,81.94
2023-04-20T09:52:13.704Z,81.45
2023-04-20T09:53:13.711Z,80.19
2023-04-20T09:54:13.739Z,79.62
2023-04-20T09:55:13.677Z,81.57
2023-04-20T09:56:13.659Z,81.43
2023-04-20T09:57:13.665Z,81.05
2023-04-20T09:58:13.686Z,81.98
2023-04-20T09:59:13.633Z,83.85
2023-04-20T10:00:13.616Z,84.22
2023-04-20T10:01:13.703Z,82.71
2023-04-20T10:02:13.726Z,81.25
2023-04-20T10:03:13.778Z,79.81
2023-04-20T10:04:13.765Z,77.57
2023-04-20T10:05:13.558Z,76.21
2023-04-20T10:06:13.576Z,76.07
2023-04-20T10:07:13.552Z,74.01
2023-04-20T10:08:13.596Z,74.38
2023-04-20T10:09:13.527Z,73.39
2023-04-20T10:10:13.509Z,72.04
2023-04-20T10:11:13.514Z,70.83
2023-04-20T10:12:13.485Z,69.41
2023-04-20T10:13:13.487Z,67.93
2023-04-20T10:14:13.478Z,67.36
2023-04-20T10:15:13.449Z,65.75
2023-04-20T10:16:13.495Z,63.10
2023-04-20T10:17:13.527Z,62.52
2023-04-20T10:18:13.476Z,62.92
2023-04-20T10:19:13.422Z,65.73
2023-04-20T10:20:13.391Z,68.26
2023-04-20T10:21:13.383Z,68.70
2023-04-20T10:22:13.380Z,65.31
2023-04-20T10:23:13.397Z,61.98
2023-04-20T10:24:13.389Z,58.47
2023-04-20T10:25:13.350Z,56.81
2023-04-20T10:26:13.326Z,56.86
2023-04-20T10:27:13.323Z,57.67
2023-04-20T10:28:13.311Z,55.85
2023-04-20T10:29:13.297Z,53.05
2023-04-20T10:30:14.428Z,51.25
2023-04-20T10:31:13.551Z,48.93
2023-04-20T10:32:13.276Z,46.01
2023-04-20T10:33:13.478Z,44.52
2023-04-20T10:34:13.260Z,44.59
2023-04-20T10:35:13.252Z,44.98
2023-04-20T10:36:13.222Z,47.24
2023-04-20T10:37:13.241Z,48.61
2023-04-20T10:38:13.199Z,50.87
2023-04-20T10:39:13.238Z,50.87
2023-04-20T10:40:13.173Z,49.17
2023-04-20T10:41:13.185Z,47.16
2023-04-20T10:42:13.648Z,46.94
2023-04-20T10:43:13.149Z,47.14
2023-04-20T10:44:13.143Z,47.26
2023-04-20T10:45:13.141Z,46.89
2023-04-20T10:46:13.153Z,44.49
2023-04-20T10:47:13.104Z,42.31
2023-04-20T10:48:13.100Z,40.74
2023-04-20T10:49:13.081Z,40.23
2023-04-20T10:50:13.133Z,40.09
2023-04-20T10:51:13.072Z,37.49
2023-04-20T10:52:13.059Z,36.13
2023-04-20T10:53:21.156Z,39.22
2023-04-20T10:54:13.024Z,40.80
2023-04-20T10:55:13.078Z,40.13
2023-04-20T10:56:13.024Z,37.80
2023-04-20T10:57:12.996Z,37.60
2023-04-20T10:58:13.001Z,36.99
2023-04-20T10:59:12.972Z,36.76
2023-04-20T11:00:12.974Z,36.91
2023-04-20T11:01:13.008Z,37.85
2023-04-20T11:02:13.022Z,40.03
2023-04-20T11:03:13.072Z,42.39
2023-04-20T11:04:12.916Z,42.53
2023-04-20T11:05:13.659Z,45.22
2023-04-20T11:06:12.921Z,46.78
2023-04-20T11:07:12.889Z,46.92
2023-04-20T11:08:12.875Z,48.07
2023-04-20T11:09:12.868Z,49.84
2023-04-20T11:10:12.868Z,51.67
2023-04-20T11:11:12.897Z,52.04
2023-04-20T11:12:12.837Z,53.25
2023-04-20T11:13:12.827Z,58.80
2023-04-20T11:14:12.830Z,60.60
2023-04-20T11:15:12.817Z,62.01
2023-04-20T11:16:12.846Z,62.98
2023-04-20T11:17:13.580Z,63.58
2023-04-20T11:18:12.796Z,63.15
2023-04-20T11:19:12.756Z,63.25
2023-04-20T11:20:12.774Z,63.42
2023-04-20T11:21:12.736Z,63.12
2023-04-20T11:22:12.728Z,63.38
2023-04-20T11:23:12.730Z,65.70
2023-04-20T11:24:12.719Z,66.81
2023-04-20T11:25:12.855Z,67.39
2023-04-20T11:26:12.682Z,65.40
2023-04-20T11:27:12.711Z,63.82
2023-04-20T11:28:12.660Z,63.12
2023-04-20T11:29:12.659Z,63.85
2023-04-20T11:30:12.667Z,63.76
2023-04-20T11:31:12.672Z,63.62
2023-04-20T11:32:12.791Z,63.62
2023-04-20T11:33:12.891Z,66.27
2023-04-20T11:34:12.592Z,65.84
2023-04-20T11:35:12.602Z,65.61
2023-04-20T11:36:12.588Z,66.11
2023-04-20T11:37:12.560Z,65.78
2023-04-20T11:38:12.549Z,63.39
2023-04-20T11:39:12.586Z,63.06
2023-04-20T11:40:12.532Z,62.12
2023-04-20T11:41:12.513Z,62.12
2023-04-20T11:42:12.512Z,61.59
2023-04-20T11:43:12.575Z,60.60
2023-04-20T11:44:12.501Z,58.00
2023-04-20T11:45:12.486Z,57.39
2023-04-20T11:46:12.523Z,57.70
2023-04-20T11:47:12.454Z,57.50
2023-04-20T11:48:12.460Z,57.19
2023-04-20T11:49:12.430Z,56.99
2023-04-20T11:50:12.414Z,56.86
2023-04-20T11:51:12.402Z,56.86
2023-04-20T11:52:12.404Z,56.69
2023-04-20T11:53:12.644Z,58.09
2023-04-20T11:54:12.384Z,58.53
2023-04-20T11:55:12.377Z,58.45
2023-04-20T11:56:12.365Z,60.16
2023-04-20T11:57:12.350Z,60.29
2023-04-20T11:58:12.324Z,60.12
2023-04-20T11:59:12.705Z,60.25
2023-04-20T12:00:12.337Z,61.66
2023-04-20T12:01:12.294Z,61.73
2023-04-20T12:02:12.362Z,61.03
2023-04-20T12:03:12.335Z,61.56
2023-04-20T12:04:12.582Z,63.00
2023-04-20T12:05:12.345Z,63.23
2023-04-20T12:06:12.237Z,63.43
2023-04-20T12:07:12.292Z,63.13
2023-04-20T12:08:12.213Z,63.23
2023-04-20T12:09:12.204Z,62.40
2023-04-20T12:10:12.190Z,62.26
2023-04-20T12:11:12.182Z,61.13
2023-04-20T12:12:12.191Z,61.13
2023-04-20T12:13:12.182Z,61.76
2023-04-20T12:14:12.162Z,60.96
2023-04-20T12:15:12.205Z,59.95
2023-04-20T12:16:12.194Z,60.63
2023-04-20T12:17:12.133Z,59.99
2023-04-20T12:18:12.230Z,60.49
2023-04-20T12:19:12.105Z,60.02
2023-04-20T12:20:12.234Z,60.93
2023-04-20T12:21:12.078Z,62.43
2023-04-20T12:22:12.081Z,63.23
2023-04-20T12:23:12.045Z,63.13
2023-04-20T12:24:12.045Z,65.57
2023-04-20T12:25:12.037Z,66.21
2023-04-20T12:26:12.033Z,66.31
2023-04-20T12:27:12.008Z,66.18
2023-04-20T12:28:12.005Z,66.18
2023-04-20T12:29:12.112Z,66.41
2023-04-20T12:30:12.018Z,67.02
2023-04-20T12:31:12.186Z,67.46
2023-04-20T12:32:11.994Z,68.10
2023-04-20T12:33:11.969Z,67.66
2023-04-20T12:34:11.935Z,66.72
2023-04-20T12:35:11.917Z,67.46
2023-04-20T12:36:11.934Z,67.96
2023-04-20T12:37:11.892Z,67.19
2023-04-20T12:38:14.472Z,65.64
2023-04-20T12:39:11.959Z,66.18
2023-04-20T12:40:11.910Z,65.91
2023-04-20T12:41:11.862Z,66.21
2023-04-20T12:42:11.871Z,66.82
2023-04-20T12:43:12.077Z,65.84
2023-04-20T12:44:11.812Z,67.22
2023-04-20T12:45:11.848Z,67.46
2023-04-20T12:46:11.833Z,68.13
2023-04-20T12:47:11.837Z,68.13
2023-04-20T12:48:11.804Z,66.96
2023-04-20T12:49:11.800Z,65.61
2023-04-20T12:50:12.028Z,65.18
2023-04-20T12:51:11.739Z,64.95
2023-04-20T12:52:11.732Z,63.20
2023-04-20T12:53:11.719Z,63.85